ENKR/KKN METAR and TAF weather

Enter ICAO airport designator
Station Type Date Time Source
ENKR METAR 2019/10/18 06:50 UTC NOAA

ENKR 180650Z 19012KT 9999 -SHSN SCT013 BKN017 M01/M03 Q1007 RMK WIND 731FT 19020KT


Station Type Date Time Source
ENKR Decoded METAR 2019/10/18 06:50 UTC NOAA

Kirkenes Lufthavn, Norway (ENKR) 69-44N 029-54E 91M
Oct 18, 2019 - 02:50 AM EDT / 2019.10.18 0650 UTC
Wind: from the S (190 degrees) at 14 MPH (12 KT):0
Visibility: greater than 7 mile(s):0
Sky conditions: mostly cloudy
Weather: light snow showers
Temperature: 30 F (-1 C)
Windchill: 19 F (-7 C):1
Dew Point: 26 F (-3 C)
Relative Humidity: 86%
Pressure (altimeter): 29.74 in. Hg (1007 hPa)
ob: ENKR 180650Z 19012KT 9999 -SHSN SCT013 BKN017 M01/M03 Q1007 RMK WIND 731FT 19020KT
cycle: 7

Station Type Date Time Source
ENKR TAF 2017/08/31 21:36 UTC NOAA

TAF TAF ENKR 312300Z 3121/0109 29005KT 9999 FEW020 SCT040

Example: see airport list